Hot Springs, Ingalls Field (KHSP)

NameIngalls Field
CityHot Springs
CountryUnited States
ICAOKHSP
IATA
Altitude1156 m
CoordinatesGoogle Map
Live Air TrafficLiveATC.net
METARKHSP 072255Z AUTO 00000KT 10SM CLR 01/M07 A3029 RMK AO2 T00051071
2019-12-07 22:55:00 Wind: North (0°) 0 m/s - Visibility: 16093.4 m - Temperature: 1 °C - Dew point: -7 °C - Humidity: 55.5% - Pressure: 1025.74 hPa

Sorry, no flights used the airport in this database.